Hanjiang, China
Current Conditions -  °F | °C
As of 3:00 AM on Wednesday 22 Oct 2014 (Local Time) from ZSFZ Reporting Station
Broken Clouds Broken Clouds  
Wind Chill: 75°   Ceiling: 800
Heat Index: 75°   Visibility: 4mi
Dew Point: 72°   Wind: 16mph
Humidity: 89%   Direction: 40°NE
Pressure: 29.97"   Gusts: NA
Location:  25.45°N, 119.1°E
Report Text: ZSFZ 211900Z 04007MPS 6000 BKN008 24/22 Q1015 NOSIG
Loading
Personal Weather Stations






























Interactive Weather Map
Tropical Storm Tracking
New forecast layout! Learn more

10-Day Weather Forecast

Advertisements
Track Severe Weather on mobile